Time;durP1;ratioP1;P1;durP2;ratioP2;P2;SDS_P1;SDS_P2;PMS_P1;PMS_P2;Temp;Humidity;BMP_temperature;BMP_pressure;BME280_temperature;BME280_humidity;BME280_pressure;Samples;Min_cycle;Max_cycle;Signal;HPM_P1;HPM_P2
2022/07/18 00:01:24;;;;;;;9.50;7.25;;;15.20;1.00;;;;;;5039222;28;20017;-75
2022/07/18 00:03:50;;;;;;;11.15;8.02;;;15.30;1.00;;;;;;5027300;28;20467;-76
2022/07/18 00:06:15;;;;;;;10.45;7.68;;;15.20;1.00;;;;;;5037522;28;20026;-75
2022/07/18 00:08:41;;;;;;;11.90;8.02;;;15.10;1.00;;;;;;5039257;28;20677;-75
2022/07/18 00:11:07;;;;;;;11.05;7.50;;;15.10;1.00;;;;;;5027625;28;20370;-75
2022/07/18 00:13:32;;;;;;;13.35;7.80;;;15.10;1.00;;;;;;5036945;28;20044;-75
2022/07/18 00:15:58;;;;;;;13.90;8.25;;;15.10;1.00;;;;;;5025668;28;20026;-75
2022/07/18 00:18:23;;;;;;;12.45;7.82;;;15.20;1.00;;;;;;5038913;28;20021;-75
2022/07/18 00:20:49;;;;;;;11.18;7.47;;;15.20;1.00;;;;;;5039092;28;20079;-75
2022/07/18 00:23:14;;;;;;;11.07;7.50;;;15.10;1.00;;;;;;5032116;28;20033;-76
2022/07/18 00:25:40;;;;;;;12.70;7.65;;;15.20;1.00;;;;;;5039382;28;20112;-75
2022/07/18 00:28:05;;;;;;;14.07;7.70;;;15.20;1.00;;;;;;5038248;28;20029;-75
2022/07/18 00:30:31;;;;;;;11.65;7.40;;;15.10;1.00;;;;;;5039022;28;20504;-75
2022/07/18 00:32:57;;;;;;;12.73;7.85;;;15.20;1.00;;;;;;5065723;23;20396;-72
2022/07/18 00:35:22;;;;;;;10.95;7.72;;;15.30;1.00;;;;;;5074557;28;20388;-73
2022/07/18 00:37:48;;;;;;;10.75;7.43;;;15.50;1.00;;;;;;5074836;28;20053;-73
2022/07/18 00:40:13;;;;;;;13.18;7.45;;;15.40;1.00;;;;;;5074731;28;20041;-73
2022/07/18 00:42:39;;;;;;;10.77;7.85;;;15.40;1.00;;;;;;5066029;28;20116;-70
2022/07/18 00:45:05;;;;;;;13.68;7.63;;;15.20;1.00;;;;;;5069472;28;20096;-70
2022/07/18 00:47:31;;;;;;;10.65;6.95;;;15.20;1.00;;;;;;5074723;28;20067;-70
2022/07/18 00:49:56;;;;;;;13.80;7.60;;;15.10;1.00;;;;;;5074752;28;20079;-70
2022/07/18 00:52:22;;;;;;;12.57;8.68;;;15.00;1.00;;;;;;5060420;28;20021;-70
2022/07/18 00:54:48;;;;;;;14.43;8.65;;;15.00;1.00;;;;;;5074649;28;20069;-71
2022/07/18 00:57:13;;;;;;;14.40;8.13;;;15.00;1.00;;;;;;5073814;28;20063;-70
2022/07/18 01:02:26;;;;;;;12.50;8.15;;;15.00;1.00;;;;;;5071703;28;20081;-70
2022/07/18 01:04:52;;;;;;;14.75;8.75;;;14.90;1.00;;;;;;5074763;28;20013;-70
2022/07/18 01:07:17;;;;;;;13.35;8.75;;;14.90;1.00;;;;;;5074297;28;20027;-70
2022/07/18 01:09:43;;;;;;;12.02;7.85;;;14.90;1.00;;;;;;5067302;28;20595;-70
2022/07/18 01:12:09;;;;;;;13.88;9.55;;;14.90;1.00;;;;;;5067377;28;20021;-70
2022/07/18 01:14:35;;;;;;;14.10;8.40;;;14.90;2.30;;;;;;5053715;28;20572;-70
2022/07/18 01:17:01;;;;;;;13.88;8.80;;;14.80;1.00;;;;;;5065399;28;20021;-70
2022/07/18 01:19:26;;;;;;;13.00;8.73;;;14.90;1.00;;;;;;5074084;28;20387;-70
2022/07/18 01:21:52;;;;;;;14.32;8.70;;;14.90;1.00;;;;;;5074087;28;20025;-70
2022/07/18 01:24:17;;;;;;;12.25;7.97;;;14.90;1.00;;;;;;5074055;28;20480;-70
2022/07/18 01:26:43;;;;;;;14.10;9.23;;;14.90;1.00;;;;;;5073998;28;20017;-70
2022/07/18 01:29:09;;;;;;;13.75;8.52;;;14.90;1.00;;;;;;5073916;28;20031;-71
2022/07/18 01:31:34;;;;;;;13.23;8.52;;;14.80;1.00;;;;;;5073817;28;20078;-70
2022/07/18 01:34:01;;;;;;;14.68;9.05;;;14.80;1.00;;;;;;5063576;28;20052;-70
2022/07/18 01:36:27;;;;;;;11.55;8.05;;;14.80;1.00;;;;;;5053709;28;20469;-70
2022/07/18 01:38:52;;;;;;;13.00;8.43;;;14.70;1.00;;;;;;5061921;28;20029;-70
2022/07/18 01:41:18;;;;;;;14.25;8.85;;;14.80;1.30;;;;;;5059393;28;20036;-70
2022/07/18 01:43:43;;;;;;;15.60;8.95;;;14.80;17.00;;;;;;5058618;28;20448;-70
2022/07/18 01:46:10;;;;;;;12.63;8.27;;;14.70;1.30;;;;;;5061410;28;20025;-70
2022/07/18 01:48:38;;;;;;;12.32;8.15;;;14.80;12.20;;;;;;5053483;28;20088;-70
2022/07/18 01:51:05;;;;;;;12.73;8.85;;;14.70;17.20;;;;;;5064122;28;20054;-70
2022/07/18 01:53:30;;;;;;;13.02;8.70;;;14.60;12.00;;;;;;5059344;28;20025;-70
2022/07/18 01:55:56;;;;;;;13.93;8.27;;;14.70;17.10;;;;;;5064942;28;20028;-70
2022/07/18 01:58:21;;;;;;;12.75;7.85;;;14.70;23.90;;;;;;5067303;28;20024;-70
2022/07/18 02:00:47;;;;;;;13.05;8.20;;;14.60;23.20;;;;;;5053397;28;20025;-73
2022/07/18 02:03:12;;;;;;;12.02;8.52;;;14.50;3.80;;;;;;5065684;28;20051;-72
2022/07/18 02:05:38;;;;;;;12.20;7.93;;;14.50;13.30;;;;;;5054706;28;20025;-73
2022/07/18 02:08:04;;;;;;;10.95;8.07;;;14.50;18.20;;;;;;5053141;28;20515;-73
2022/07/18 02:10:29;;;;;;;11.25;7.78;;;14.50;28.10;;;;;;5053169;28;20029;-72
2022/07/18 02:12:55;;;;;;;14.45;8.60;;;14.50;14.70;;;;;;5061477;28;20032;-73
2022/07/18 02:15:21;;;;;;;10.80;7.88;;;14.50;21.80;;;;;;5058590;28;20385;-73
2022/07/18 02:17:47;;;;;;;12.10;7.95;;;14.40;1.00;;;;;;5059371;28;20118;-73
2022/07/18 02:20:14;;;;;;;11.15;7.25;;;14.50;13.50;;;;;;5057568;28;20029;-73
2022/07/18 02:22:42;;;;;;;12.05;7.72;;;14.40;1.00;;;;;;5071560;28;20020;-73
2022/07/18 02:25:08;;;;;;;11.95;7.07;;;14.50;1.00;;;;;;5061990;28;20025;-73
2022/07/18 02:27:34;;;;;;;10.32;6.45;;;14.50;1.00;;;;;;5052699;28;20021;-73
2022/07/18 02:29:59;;;;;;;11.40;7.30;;;14.60;1.00;;;;;;5052726;28;20021;-73
2022/07/18 02:32:25;;;;;;;10.55;7.10;;;14.60;1.00;;;;;;5052385;28;20083;-73
2022/07/18 02:34:51;;;;;;;11.45;6.15;;;14.70;1.00;;;;;;5038723;28;20078;-72
2022/07/18 02:37:16;;;;;;;9.93;6.32;;;14.70;1.00;;;;;;5052616;28;20079;-73
2022/07/18 02:39:42;;;;;;;10.85;6.53;;;14.60;1.00;;;;;;5053554;28;20083;-73
2022/07/18 02:42:07;;;;;;;8.35;6.10;;;14.70;1.00;;;;;;5065572;28;20039;-73
2022/07/18 02:44:33;;;;;;;10.48;6.30;;;14.60;1.00;;;;;;5065639;28;20118;-73
2022/07/18 02:46:59;;;;;;;10.05;6.32;;;14.60;1.00;;;;;;5053567;28;20017;-70
2022/07/18 02:49:28;;;;;;;9.93;6.57;;;14.60;1.00;;;;;;5052478;28;20021;-70
2022/07/18 02:52:04;;;;;;;9.63;6.32;;;14.60;1.00;;;;;;5055798;28;20027;-70
2022/07/18 02:54:31;;;;;;;10.98;6.75;;;14.60;1.00;;;;;;5061363;28;20047;-70
2022/07/18 02:56:57;;;;;;;9.27;6.10;;;14.70;1.00;;;;;;5052368;28;20503;-70
2022/07/18 02:59:25;;;;;;;10.05;6.55;;;14.60;1.00;;;;;;5052136;28;20052;-70
2022/07/18 03:01:51;;;;;;;11.50;5.97;;;14.60;1.00;;;;;;5066505;28;20028;-70
2022/07/18 03:04:18;;;;;;;9.43;6.00;;;14.60;1.00;;;;;;5059772;28;20066;-70
2022/07/18 03:06:44;;;;;;;9.55;5.75;;;14.70;1.00;;;;;;5072470;28;20032;-70
2022/07/18 03:09:10;;;;;;;11.23;5.93;;;14.70;1.00;;;;;;5058027;28;20028;-70
2022/07/18 03:11:35;;;;;;;7.95;5.43;;;14.60;1.00;;;;;;5060743;28;20122;-70
2022/07/18 03:14:01;;;;;;;11.82;6.95;;;14.60;1.00;;;;;;5066128;28;20052;-70
2022/07/18 03:16:26;;;;;;;10.40;6.15;;;14.60;1.00;;;;;;5052133;28;20364;-70
2022/07/18 03:18:52;;;;;;;9.32;5.15;;;14.60;1.00;;;;;;5036542;28;20377;-70
2022/07/18 03:21:18;;;;;;;9.63;5.57;;;14.60;1.00;;;;;;5059456;28;20518;-70
2022/07/18 03:23:43;;;;;;;9.57;5.82;;;14.60;1.00;;;;;;5058734;28;20187;-70
2022/07/18 03:26:09;;;;;;;8.98;5.63;;;14.50;1.00;;;;;;5051937;28;20453;-70
2022/07/18 03:28:34;;;;;;;10.18;6.13;;;14.60;1.00;;;;;;5063346;28;20123;-70
2022/07/18 03:31:00;;;;;;;10.18;6.20;;;14.60;1.00;;;;;;5057767;28;20102;-71
2022/07/18 03:33:26;;;;;;;12.10;5.97;;;14.60;1.00;;;;;;5052398;28;20045;-70
2022/07/18 03:35:52;;;;;;;11.60;5.95;;;14.60;1.00;;;;;;5051850;28;20010;-70
2022/07/18 03:38:18;;;;;;;9.43;5.15;;;14.70;1.00;;;;;;5054975;28;20027;-70
2022/07/18 03:40:43;;;;;;;11.68;6.63;;;14.60;1.00;;;;;;5071992;28;20031;-70
2022/07/18 03:43:09;;;;;;;10.70;6.13;;;14.60;1.00;;;;;;5057640;28;20021;-70
2022/07/18 03:45:34;;;;;;;9.48;5.85;;;14.50;1.00;;;;;;5066704;28;20111;-70
2022/07/18 03:48:00;;;;;;;10.73;6.30;;;14.60;1.00;;;;;;5058621;28;20064;-70
2022/07/18 03:50:27;;;;;;;10.35;5.65;;;14.50;1.00;;;;;;5065798;28;20017;-70
2022/07/18 03:52:53;;;;;;;10.25;6.03;;;14.50;1.00;;;;;;5052107;28;20430;-70
2022/07/18 03:55:19;;;;;;;9.85;6.30;;;14.50;1.00;;;;;;5051739;28;20028;-70
2022/07/18 03:57:44;;;;;;;8.45;5.80;;;14.60;1.00;;;;;;5052079;28;20071;-70
2022/07/18 04:00:11;;;;;;;10.20;5.78;;;14.60;1.00;;;;;;5051462;28;20032;-70
2022/07/18 04:02:42;;;;;;;10.40;5.60;;;14.70;1.00;;;;;;5057925;28;20042;-70
2022/07/18 04:05:08;;;;;;;11.32;5.88;;;14.70;1.00;;;;;;5057318;28;20032;-70
2022/07/18 04:07:34;;;;;;;12.07;5.50;;;14.70;1.00;;;;;;5053223;28;20465;-70
2022/07/18 04:09:59;;;;;;;12.02;5.35;;;14.70;1.00;;;;;;5067627;28;20102;-70
2022/07/18 04:12:25;;;;;;;9.10;5.70;;;14.70;1.00;;;;;;5061258;28;20032;-70
2022/07/18 04:14:50;;;;;;;11.77;5.60;;;14.70;1.00;;;;;;5064991;28;20029;-70
2022/07/18 04:17:16;;;;;;;8.35;5.47;;;14.80;1.00;;;;;;5069284;28;20108;-70
2022/07/18 04:19:42;;;;;;;8.57;5.10;;;14.90;1.00;;;;;;5055144;28;20108;-70
2022/07/18 04:22:07;;;;;;;8.05;5.00;;;15.00;1.00;;;;;;5069277;28;20499;-70
2022/07/18 04:24:33;;;;;;;8.75;5.30;;;15.00;1.00;;;;;;5061244;28;20020;-70
2022/07/18 04:26:59;;;;;;;10.02;5.35;;;15.10;1.00;;;;;;5061625;28;20028;-70
2022/07/18 04:29:24;;;;;;;9.48;5.60;;;15.20;1.00;;;;;;5055000;28;20093;-70
2022/07/18 04:31:50;;;;;;;12.32;5.95;;;15.40;1.00;;;;;;5050995;28;20092;-70
2022/07/18 04:34:16;;;;;;;9.65;5.55;;;15.60;1.00;;;;;;5066641;28;20060;-70
2022/07/18 04:36:41;;;;;;;10.52;5.82;;;15.80;1.00;;;;;;5056727;28;20044;-70
2022/07/18 04:39:07;;;;;;;9.95;6.20;;;15.80;1.00;;;;;;5064966;28;20025;-69
2022/07/18 04:41:32;;;;;;;10.10;5.90;;;15.90;1.00;;;;;;5058775;28;20029;-70
2022/07/18 04:43:58;;;;;;;9.50;6.22;;;16.10;1.00;;;;;;5054959;28;20033;-70
2022/07/18 04:46:23;;;;;;;10.25;5.75;;;16.20;1.00;;;;;;5068804;28;20158;-70
2022/07/18 04:48:49;;;;;;;10.40;5.93;;;16.20;1.00;;;;;;5040809;28;20057;-70
2022/07/18 04:51:15;;;;;;;8.75;5.20;;;16.30;1.00;;;;;;5054634;28;20357;-70
2022/07/18 04:53:40;;;;;;;10.88;6.35;;;16.30;1.00;;;;;;5068726;28;20017;-70
2022/07/18 04:56:06;;;;;;;10.43;6.10;;;16.40;1.00;;;;;;5064548;28;20428;-70
2022/07/18 04:58:31;;;;;;;9.05;5.50;;;16.40;1.00;;;;;;5058412;28;20114;-70
2022/07/18 05:00:57;;;;;;;8.70;5.45;;;16.40;1.00;;;;;;5062349;28;20029;-70
2022/07/18 05:03:23;;;;;;;10.57;6.43;;;16.40;1.00;;;;;;5060642;28;20017;-70
2022/07/18 05:05:48;;;;;;;11.20;6.05;;;16.50;1.00;;;;;;5060185;28;20020;-73
2022/07/18 05:08:14;;;;;;;10.13;5.72;;;16.50;1.00;;;;;;5062297;28;20025;-71
2022/07/18 05:11:08;;;;;;;9.50;5.55;;;16.60;1.00;;;;;;5052816;28;20047;-70
2022/07/18 05:13:34;;;;;;;8.77;6.13;;;16.60;1.00;;;;;;5049728;28;20033;-71
2022/07/18 05:15:59;;;;;;;8.65;5.85;;;16.70;1.00;;;;;;5073926;28;20023;-70
2022/07/18 05:18:25;;;;;;;9.32;5.85;;;16.70;1.00;;;;;;5055125;28;20029;-70
2022/07/18 05:20:51;;;;;;;12.20;6.15;;;16.90;1.00;;;;;;5054091;28;20530;-71
2022/07/18 05:23:16;;;;;;;9.20;6.13;;;16.90;1.00;;;;;;5053770;28;20032;-70
2022/07/18 05:25:42;;;;;;;11.40;6.07;;;16.90;1.00;;;;;;5055284;28;20029;-70
2022/07/18 05:28:08;;;;;;;10.07;5.82;;;17.00;1.00;;;;;;5073806;28;20036;-70
2022/07/18 05:30:33;;;;;;;11.02;5.53;;;17.10;1.00;;;;;;5061636;28;20029;-71
2022/07/18 05:32:59;;;;;;;8.68;5.50;;;17.30;1.00;;;;;;5053280;28;20052;-71
2022/07/18 05:35:25;;;;;;;8.20;5.53;;;17.30;1.00;;;;;;5053668;28;20063;-71
2022/07/18 05:37:50;;;;;;;12.65;5.90;;;17.30;1.00;;;;;;5053956;28;20055;-71
2022/07/18 05:40:16;;;;;;;10.57;5.63;;;17.50;1.00;;;;;;5053614;28;20649;-71
2022/07/18 05:42:42;;;;;;;8.52;5.22;;;17.60;1.00;;;;;;5053728;28;20032;-72
2022/07/18 05:45:08;;;;;;;12.23;5.85;;;17.70;1.00;;;;;;5053608;28;20048;-70
2022/07/18 05:47:34;;;;;;;9.43;5.43;;;18.00;1.00;;;;;;5044173;28;20029;-71
2022/07/18 05:50:00;;;;;;;10.32;5.70;;;18.10;99.90;;;;;;5048738;28;20025;-72
2022/07/18 05:52:25;;;;;;;10.50;5.15;;;18.20;1.00;;;;;;5053559;28;20032;-71
2022/07/18 05:54:51;;;;;;;10.57;6.00;;;18.40;99.90;;;;;;5053485;28;20029;-71
2022/07/18 05:57:17;;;;;;;7.60;5.40;;;18.60;99.90;;;;;;5053293;28;20021;-71
2022/07/18 05:59:42;;;;;;;8.50;5.78;;;18.70;99.90;;;;;;5053518;28;20063;-71
2022/07/18 06:02:08;;;;;;;7.35;5.28;;;18.90;99.90;;;;;;5053243;28;20032;-71
2022/07/18 06:04:33;;;;;;;8.38;5.50;;;19.10;99.90;;;;;;5053315;28;20060;-71
2022/07/18 06:06:59;;;;;;;11.90;5.60;;;19.50;99.90;;;;;;5053257;28;20465;-71
2022/07/18 06:09:25;;;;;;;11.25;6.00;;;20.00;99.90;;;;;;5053082;28;20055;-71
2022/07/18 06:11:51;;;;;;;8.73;5.80;;;20.30;99.90;;;;;;5053247;28;20538;-71
2022/07/18 06:14:17;;;;;;;9.35;5.72;;;21.00;99.90;;;;;;5053030;28;20032;-71
2022/07/18 06:16:42;;;;;;;11.57;6.03;;;21.60;99.90;;;;;;5052931;28;20017;-72
2022/07/18 06:19:08;;;;;;;8.40;5.90;;;22.30;99.90;;;;;;5052944;28;20035;-72
2022/07/18 06:21:33;;;;;;;10.55;5.72;;;24.30;99.90;;;;;;5039166;28;20026;-71
2022/07/18 06:23:59;;;;;;;11.25;5.70;;;24.20;99.90;;;;;;5052727;28;20024;-71
2022/07/18 06:26:24;;;;;;;8.45;5.70;;;24.60;99.90;;;;;;5052658;28;20033;-71
2022/07/18 06:28:50;;;;;;;10.95;5.85;;;25.80;99.90;;;;;;5052786;28;20020;-71
2022/07/18 06:31:17;;;;;;;8.25;5.55;;;27.00;99.90;;;;;;5051685;28;20040;-71
2022/07/18 06:33:42;;;;;;;9.63;5.35;;;27.70;99.90;;;;;;5052263;28;20509;-70
2022/07/18 06:36:11;;;;;;;7.00;5.03;;;27.80;99.90;;;;;;5039093;28;20079;-71
2022/07/18 06:38:37;;;;;;;8.43;5.70;;;28.10;99.90;;;;;;5057594;28;20017;-71
2022/07/18 06:41:03;;;;;;;7.93;5.13;;;30.60;99.90;;;;;;5052391;28;20602;-71
2022/07/18 06:43:28;;;;;;;7.47;5.15;;;32.90;99.90;;;;;;5061665;28;20028;-71
2022/07/18 06:45:57;;;;;;;9.48;5.03;;;32.70;99.90;;;;;;5059264;28;20490;-71
2022/07/18 06:48:23;;;;;;;7.43;4.55;;;32.40;99.90;;;;;;5056953;28;20016;-71
2022/07/18 06:50:48;;;;;;;6.93;4.60;;;31.00;99.90;;;;;;5065622;28;20502;-70
2022/07/18 06:53:14;;;;;;;7.18;4.75;;;31.80;99.90;;;;;;5066815;28;20024;-72
2022/07/18 06:55:39;;;;;;;6.30;4.88;;;29.90;99.90;;;;;;5057769;28;20411;-71
2022/07/18 06:58:05;;;;;;;7.07;4.43;;;29.50;99.90;;;;;;5051773;28;20029;-71
2022/07/18 07:00:31;;;;;;;7.50;4.30;;;30.40;99.90;;;;;;5060713;28;20100;-71
2022/07/18 07:02:56;;;;;;;6.25;4.55;;;29.50;99.90;;;;;;5052261;28;20049;-71
2022/07/18 07:05:22;;;;;;;11.48;4.43;;;29.30;99.90;;;;;;5052177;28;20028;-71
2022/07/18 07:07:48;;;;;;;10.93;4.20;;;30.50;99.90;;;;;;5047260;28;20060;-71
2022/07/18 07:10:16;;;;;;;8.00;4.03;;;35.10;99.90;;;;;;5055339;28;20052;-71
2022/07/18 07:12:47;;;;;;;6.80;4.13;;;37.00;99.90;;;;;;5054384;28;20017;-70
2022/07/18 07:15:14;;;;;;;5.07;3.90;;;36.20;99.90;;;;;;5056071;28;20104;-71
2022/07/18 07:17:40;;;;;;;7.50;4.00;;;36.30;99.90;;;;;;5058843;28;20564;-69
2022/07/18 07:20:07;;;;;;;4.55;3.67;;;36.30;99.90;;;;;;5062599;28;20104;-70
2022/07/18 07:22:41;;;;;;;5.65;3.83;;;38.70;99.90;;;;;;5064781;28;20062;-70
2022/07/18 07:25:08;;;;;;;5.80;4.07;;;39.70;99.90;;;;;;5057212;28;20107;-71
2022/07/18 07:27:33;;;;;;;4.80;3.35;;;42.20;99.90;;;;;;5051832;28;20664;-71
2022/07/18 07:29:59;;;;;;;5.50;3.33;;;40.70;99.90;;;;;;5054795;28;20151;-71
2022/07/18 07:32:24;;;;;;;5.00;3.80;;;39.10;99.90;;;;;;5051258;28;20068;-71
2022/07/18 07:34:50;;;;;;;5.50;3.58;;;38.30;99.90;;;;;;5051696;28;20108;-71
2022/07/18 07:37:16;;;;;;;5.15;3.72;;;39.50;99.90;;;;;;5058618;28;20166;-72
2022/07/18 07:39:41;;;;;;;7.60;3.40;;;41.50;99.90;;;;;;5051864;28;20082;-71
2022/07/18 07:42:07;;;;;;;5.80;3.15;;;41.20;99.90;;;;;;5054666;28;20054;-73
2022/07/18 07:44:32;;;;;;;4.55;3.10;;;40.00;99.90;;;;;;5054424;28;20098;-71
2022/07/18 07:46:59;;;;;;;5.80;3.17;;;39.80;99.90;;;;;;5051250;28;20032;-72
2022/07/18 07:49:25;;;;;;;4.18;2.92;;;39.80;99.90;;;;;;5053850;28;20028;-71
2022/07/18 07:51:51;;;;;;;6.15;3.17;;;41.30;99.90;;;;;;5045879;28;20446;-72
2022/07/18 07:54:16;;;;;;;5.20;2.72;;;42.20;99.90;;;;;;5049682;28;20024;-72
2022/07/18 07:56:42;;;;;;;4.25;2.45;;;42.70;99.90;;;;;;5054870;28;20154;-72
2022/07/18 07:59:07;;;;;;;4.38;2.72;;;42.20;99.90;;;;;;5056203;28;20056;-72
2022/07/18 08:01:33;;;;;;;5.05;2.33;;;42.00;99.90;;;;;;5067225;28;20040;-72
2022/07/18 08:03:58;;;;;;;3.95;2.85;;;40.60;99.90;;;;;;5055276;28;20033;-72
2022/07/18 08:06:24;;;;;;;6.82;2.95;;;42.30;99.90;;;;;;5055336;28;20048;-72
2022/07/18 08:08:49;;;;;;;3.67;2.40;;;42.10;99.90;;;;;;5049168;28;21441;-72
2022/07/18 08:11:15;;;;;;;5.38;2.70;;;43.20;99.90;;;;;;5055321;28;20398;-72
2022/07/18 08:13:41;;;;;;;3.92;2.30;;;42.00;99.90;;;;;;5055085;28;20488;-71
2022/07/18 08:16:06;;;;;;;5.07;2.40;;;41.50;99.90;;;;;;5054990;28;20408;-72
2022/07/18 08:18:32;;;;;;;5.10;2.45;;;42.00;99.90;;;;;;5054977;28;20032;-72
2022/07/18 08:20:57;;;;;;;2.92;2.03;;;41.70;99.90;;;;;;5055110;28;20064;-72
2022/07/18 08:23:23;;;;;;;5.03;2.42;;;44.50;99.90;;;;;;5063677;28;20020;-73
2022/07/18 08:25:48;;;;;;;4.20;2.58;;;45.00;99.90;;;;;;5055057;28;20018;-72
2022/07/18 08:28:14;;;;;;;5.00;2.15;;;46.10;99.90;;;;;;5052870;28;20028;-72
2022/07/18 08:30:40;;;;;;;5.60;2.42;;;46.70;99.90;;;;;;5057547;28;20021;-73
2022/07/18 08:33:07;;;;;;;5.50;2.33;;;46.90;99.90;;;;;;5055007;28;20503;-72
2022/07/18 08:35:33;;;;;;;3.05;2.15;;;47.10;99.90;;;;;;5057558;28;20400;-72
2022/07/18 08:37:59;;;;;;;4.75;2.40;;;48.00;99.90;;;;;;5054690;28;20060;-73
2022/07/18 08:40:25;;;;;;;4.28;2.45;;;45.70;99.90;;;;;;5058752;28;20039;-72
2022/07/18 08:42:54;;;;;;;3.83;2.60;;;43.10;99.90;;;;;;5054662;28;20021;-72
2022/07/18 08:45:24;;;;;;;6.22;2.25;;;42.40;99.90;;;;;;5054664;28;20036;-72
2022/07/18 08:47:51;;;;;;;3.25;2.00;;;44.40;99.90;;;;;;5060956;28;20104;-72
2022/07/18 08:50:17;;;;;;;4.55;2.55;;;45.40;99.90;;;;;;5054413;28;20032;-72
2022/07/18 08:52:44;;;;;;;3.72;2.30;;;45.80;99.90;;;;;;5054003;28;20528;-73
2022/07/18 08:55:10;;;;;;;3.50;2.22;;;46.10;99.90;;;;;;5056075;28;20025;-72
2022/07/18 08:57:36;;;;;;;3.92;2.20;;;46.50;99.90;;;;;;5054776;28;20457;-73
2022/07/18 09:00:08;;;;;;;5.20;2.20;;;46.50;99.90;;;;;;5054385;28;20039;-73
2022/07/18 09:02:34;;;;;;;3.80;2.03;;;45.30;99.90;;;;;;5054620;28;20469;-73
2022/07/18 09:05:04;;;;;;;4.22;2.08;;;45.70;99.90;;;;;;5054413;28;20083;-73
2022/07/18 09:07:34;;;;;;;3.83;2.20;;;46.40;99.90;;;;;;5054176;28;20071;-73
2022/07/18 09:10:02;;;;;;;3.95;2.03;;;46.10;99.90;;;;;;5042421;28;20441;-73
2022/07/18 09:12:30;;;;;;;3.95;2.20;;;46.20;99.90;;;;;;5052847;28;20035;-72
2022/07/18 09:14:57;;;;;;;3.30;2.15;;;45.10;99.90;;;;;;5054339;28;20020;-73
2022/07/18 09:17:25;;;;;;;2.80;2.05;;;45.40;99.90;;;;;;5054168;28;20040;-73
2022/07/18 09:20:08;;;;;;;3.75;2.17;;;44.50;99.90;;;;;;5045745;28;20120;-73
2022/07/18 09:22:37;;;;;;;3.83;1.85;;;43.50;99.90;;;;;;5053820;28;20045;-73
2022/07/18 09:25:12;;;;;;;3.60;2.20;;;40.00;99.90;;;;;;5040641;28;20025;-73
2022/07/18 09:27:45;;;;;;;3.35;2.17;;;41.10;99.90;;;;;;5053400;28;20029;-73
2022/07/18 09:30:24;;;;;;;3.50;2.22;;;41.40;99.90;;;;;;5057598;28;20052;-73
2022/07/18 09:33:04;;;;;;;4.30;1.88;;;42.70;99.90;;;;;;5066690;28;20055;-73
2022/07/18 09:35:36;;;;;;;4.13;2.00;;;42.80;99.90;;;;;;5065414;28;20052;-73
2022/07/18 09:38:07;;;;;;;5.00;1.85;;;43.30;99.90;;;;;;5045731;28;20021;-72
2022/07/18 09:40:42;;;;;;;4.43;2.50;;;41.30;99.90;;;;;;5061721;28;20035;-72
2022/07/18 09:43:10;;;;;;;2.22;2.00;;;41.40;99.90;;;;;;5058439;28;20028;-73
2022/07/18 09:45:41;;;;;;;4.05;1.88;;;41.70;99.90;;;;;;5053765;28;20056;-73
2022/07/18 09:48:12;;;;;;;4.45;2.35;;;41.50;99.90;;;;;;5053765;28;20035;-73
2022/07/18 09:50:41;;;;;;;5.03;2.42;;;41.70;99.90;;;;;;5066709;28;20100;-72
2022/07/18 09:53:24;;;;;;;3.17;1.85;;;40.40;99.90;;;;;;5053556;28;20052;-73
2022/07/18 09:55:58;;;;;;;2.65;1.88;;;39.20;99.90;;;;;;5043451;28;20021;-73
2022/07/18 09:58:29;;;;;;;3.72;1.92;;;40.20;99.90;;;;;;5039385;28;20420;-73
2022/07/18 10:00:56;;;;;;;4.45;1.90;;;40.00;99.90;;;;;;5059763;28;20025;-73
2022/07/18 10:03:23;;;;;;;4.13;1.88;;;40.40;99.90;;;;;;5053294;28;20013;-74
2022/07/18 10:05:51;;;;;;;6.32;2.47;;;41.40;99.90;;;;;;5057818;28;20013;-73
2022/07/18 10:08:19;;;;;;;4.30;2.08;;;41.60;99.90;;;;;;5060896;28;20021;-72
2022/07/18 10:10:47;;;;;;;4.65;1.83;;;44.00;99.90;;;;;;5057553;28;20029;-73
2022/07/18 10:13:14;;;;;;;3.97;1.80;;;44.20;99.90;;;;;;5062214;28;20031;-73
2022/07/18 10:15:42;;;;;;;2.55;1.80;;;43.90;99.90;;;;;;5053082;28;20021;-72
2022/07/18 10:18:10;;;;;;;2.10;1.90;;;42.90;99.90;;;;;;5052732;28;20075;-73
2022/07/18 10:20:44;;;;;;;4.57;1.90;;;42.40;99.90;;;;;;5054164;28;20400;-72
2022/07/18 10:23:29;;;;;;;4.15;1.83;;;42.10;99.90;;;;;;5052860;28;20147;-72
2022/07/18 10:26:14;;;;;;;4.07;1.90;;;41.60;99.90;;;;;;5046685;28;20041;-72
2022/07/18 10:28:55;;;;;;;2.92;1.73;;;42.10;99.90;;;;;;5066224;28;20086;-72
2022/07/18 10:31:23;;;;;;;3.75;1.92;;;42.20;99.90;;;;;;5047064;28;20028;-72
2022/07/18 10:33:50;;;;;;;6.20;2.13;;;42.20;99.90;;;;;;5052341;28;20132;-71
2022/07/18 10:36:23;;;;;;;5.60;2.25;;;42.60;99.90;;;;;;5052338;28;20407;-71
2022/07/18 10:39:20;;;;;;;3.28;2.00;;;42.40;99.90;;;;;;5054139;28;20033;-72
2022/07/18 10:41:46;;;;;;;4.22;2.30;;;41.50;99.90;;;;;;5056607;28;20476;-72
2022/07/18 10:44:29;;;;;;;4.20;2.30;;;41.50;99.90;;;;;;5057152;28;20036;-71
2022/07/18 10:47:15;;;;;;;5.95;2.00;;;42.70;99.90;;;;;;5052981;28;20028;-72
2022/07/18 10:49:47;;;;;;;3.72;1.95;;;43.70;99.90;;;;;;5059428;28;20090;-71
2022/07/18 10:52:25;;;;;;;4.35;1.70;;;43.60;99.90;;;;;;5060050;28;20020;-72
2022/07/18 10:55:02;;;;;;;2.92;1.92;;;43.80;99.90;;;;;;5063823;28;20435;-71
2022/07/18 10:57:30;;;;;;;2.50;1.80;;;44.10;99.90;;;;;;5042469;28;20495;-71
2022/07/18 11:00:16;;;;;;;2.60;1.88;;;44.20;99.90;;;;;;5052091;28;20617;-71
2022/07/18 11:03:11;;;;;;;4.97;1.90;;;42.10;99.90;;;;;;5040942;28;20051;-71
2022/07/18 11:05:44;;;;;;;3.60;1.77;;;41.30;99.90;;;;;;5051997;28;20054;-71
2022/07/18 11:08:10;;;;;;;3.17;1.95;;;41.70;99.90;;;;;;5051928;28;20123;-71
2022/07/18 11:10:41;;;;;;;3.67;1.98;;;40.50;99.90;;;;;;5051305;28;20071;-71
2022/07/18 11:13:32;;;;;;;3.90;2.20;;;41.20;99.90;;;;;;5051883;28;20099;-71
2022/07/18 11:16:07;;;;;;;2.58;2.00;;;40.90;99.90;;;;;;5051499;28;20021;-71
2022/07/18 11:18:43;;;;;;;3.45;2.10;;;41.20;99.90;;;;;;5063374;28;20122;-71
2022/07/18 11:21:31;;;;;;;2.30;1.90;;;41.80;99.90;;;;;;5046382;28;20056;-71
2022/07/18 11:24:03;;;;;;;2.63;1.40;;;40.60;99.90;;;;;;5047234;28;20024;-71
2022/07/18 11:26:30;;;;;;;7.10;2.40;;;40.20;99.90;;;;;;5051766;28;20024;-72
2022/07/18 11:29:05;;;;;;;3.95;2.42;;;40.10;99.90;;;;;;5034972;28;20046;-71
2022/07/18 11:31:31;;;;;;;3.90;2.60;;;38.70;99.90;;;;;;5050147;28;20028;-71
2022/07/18 11:34:00;;;;;;;3.67;2.53;;;39.00;99.90;;;;;;5061121;28;20067;-71
2022/07/18 11:36:30;;;;;;;4.35;2.40;;;39.40;99.90;;;;;;5052256;28;20026;-71
2022/07/18 11:38:59;;;;;;;4.38;2.20;;;38.60;99.90;;;;;;5066580;28;20021;-71
2022/07/18 11:41:24;;;;;;;5.38;2.03;;;37.90;99.90;;;;;;5056925;28;20156;-71
2022/07/18 11:43:52;;;;;;;4.30;2.55;;;37.50;99.90;;;;;;5065177;28;20096;-71
2022/07/18 11:46:20;;;;;;;3.60;2.45;;;37.50;99.90;;;;;;5066437;28;20063;-71
2022/07/18 11:48:48;;;;;;;5.00;2.63;;;37.70;99.90;;;;;;5062542;28;20078;-71
2022/07/18 11:51:19;;;;;;;4.55;2.10;;;37.80;99.90;;;;;;5051084;28;20037;-71
2022/07/18 11:53:49;;;;;;;4.32;1.95;;;36.80;99.90;;;;;;5051698;28;20021;-71
2022/07/18 11:56:16;;;;;;;5.50;1.90;;;36.70;99.90;;;;;;5049250;28;20040;-72
2022/07/18 11:58:43;;;;;;;3.05;2.00;;;37.20;99.90;;;;;;5060540;28;20017;-71
2022/07/18 12:01:09;;;;;;;4.50;1.80;;;36.50;99.90;;;;;;5051152;28;20381;-71
2022/07/18 12:03:43;;;;;;;3.72;2.13;;;36.80;99.90;;;;;;5052137;28;20035;-71
2022/07/18 12:06:14;;;;;;;3.13;1.90;;;36.50;99.90;;;;;;5051099;28;20028;-71
2022/07/18 12:08:42;;;;;;;2.85;2.00;;;35.90;99.90;;;;;;5050954;28;20465;-71
2022/07/18 12:11:15;;;;;;;3.88;2.10;;;35.30;99.90;;;;;;5048458;28;20029;-71
2022/07/18 12:14:23;;;;;;;1.90;1.70;;;35.10;99.90;;;;;;5053789;28;20552;-71
2022/07/18 12:16:56;;;;;;;3.20;1.95;;;34.80;99.90;;;;;;4968496;28;20636;-71
2022/07/18 12:19:33;;;;;;;3.75;2.00;;;34.90;99.90;;;;;;5032359;28;20481;-71
2022/07/18 12:22:10;;;;;;;8.75;1.67;;;34.60;99.90;;;;;;5051331;28;20086;-71
2022/07/18 12:24:51;;;;;;;3.88;2.22;;;34.60;99.90;;;;;;5051487;28;20101;-71
2022/07/18 12:27:18;;;;;;;3.67;2.13;;;34.70;99.90;;;;;;5050909;28;20476;-71
2022/07/18 12:30:19;;;;;;;2.88;2.00;;;34.20;99.90;;;;;;5048612;28;20021;-71
2022/07/18 12:32:45;;;;;;;4.13;2.22;;;34.00;99.90;;;;;;5011264;28;20053;-71
2022/07/18 12:35:23;;;;;;;3.70;1.90;;;33.90;99.90;;;;;;5044416;28;20550;-71
2022/07/18 12:38:05;;;;;;;4.32;2.03;;;33.90;99.90;;;;;;5054635;28;20025;-71
2022/07/18 12:40:42;;;;;;;2.65;2.00;;;33.80;99.90;;;;;;5044444;28;20040;-71
2022/07/18 12:43:13;;;;;;;2.92;1.90;;;33.90;99.90;;;;;;5055259;28;20427;-71
2022/07/18 12:45:39;;;;;;;2.35;2.15;;;34.00;99.90;;;;;;5061168;28;20092;-72
2022/07/18 12:48:07;;;;;;;4.15;1.75;;;33.70;99.90;;;;;;5054629;28;20112;-72
2022/07/18 12:50:33;;;;;;;7.15;2.05;;;33.90;99.90;;;;;;5040698;28;20017;-72
2022/07/18 12:52:58;;;;;;;3.15;2.13;;;33.80;99.90;;;;;;5065029;28;20461;-72
2022/07/18 12:55:26;;;;;;;6.38;2.13;;;33.80;99.90;;;;;;5054169;28;20092;-73